Boa Esperanca, Brazil
Current Conditions -  °F | °C
As of 12:00 PM on Thursday 18 Dec 2014 (Local Time) from SBFZ Reporting Station
Scattered Clouds Scattered Clouds  
Wind Chill: 84°   Ceiling: Unl
Heat Index: 86°   Visibility: 6mi
Dew Point: 64°   Wind: 17mph
Humidity: 51%   Direction: 100°E
Pressure: 29.88"   Gusts: NA
Location:  4.13°S, 38.75°W
Report Text: SBFZ 181500Z 10015KT 9999 SCT030 29/18 Q1012
Loading
Personal Weather Stations






























Interactive Weather Map New forecast layout! Learn more

10-Day Weather Forecast

Advertisements
Track Severe Weather on mobile